This is the latest recevied weather packets stored in our database for station/object W8RD. If no packets are shown the sender has not sent any weather packets the latest 10 day(s).
| Time | Temp. | Humidity | Pressure | Rain* | Wind** | Luminosity | Snow |
|---|---|---|---|---|---|---|---|
| 1777921548 | 30° C | 44% | 1016.2 hPa | 0 mm | - | 898 W/m² | - |
| 1777920947 | 31.11° C | 37% | 1016.2 hPa | 0 mm | - | 735 W/m² | - |
| 1777920345 | 28.89° C | 42% | 1016.3 hPa | 0 mm | - | 888 W/m² | - |
| 1777919744 | 28.33° C | 41% | 1016.5 hPa | 0 mm | - | 678 W/m² | - |
| 1777919138 | 27.78° C | 42% | 1016.8 hPa | 0 mm | - | 240 W/m² | - |
| 1777918538 | 28.89° C | 39% | 1016.9 hPa | 0 mm | - | 248 W/m² | - |
| 1777917935 | 29.44° C | 39% | 1017 hPa | 0 mm | - | 394 W/m² | - |
| 1777917331 | 28.89° C | 40% | 1017.5 hPa | 0 mm | - | 879 W/m² | - |
| 1777916726 | 28.33° C | 42% | 1017.3 hPa | 0 mm | - | 964 W/m² | - |
| 1777916125 | 28.33° C | 40% | 1017.4 hPa | 0 mm | - | 861 W/m² | - |
| 1777915524 | 28.89° C | 40% | 1017.5 hPa | 0 mm | - | 944 W/m² | - |
| 1777914923 | 27.78° C | 42% | 1017.6 hPa | 0 mm | - | 976 W/m² | - |
| 1777914322 | 28.89° C | 42% | 1017.8 hPa | 0 mm | - | 307 W/m² | - |
| 1777913721 | 27.78° C | 41% | 1017.7 hPa | 0 mm | - | 923 W/m² | - |
| 1777913120 | 27.78° C | 43% | 1017.6 hPa | 0 mm | - | 357 W/m² | - |
| 1777912519 | 27.78° C | 45% | 1018.1 hPa | 0 mm | - | 70 W/m² | - |
| 1777911918 | 27.78° C | 44% | 1018 hPa | 0 mm | - | 78 W/m² | - |
| 1777911316 | 27.78° C | 46% | 1018.1 hPa | 0 mm | - | 71 W/m² | - |
| 1777910712 | 27.22° C | 47% | 1018.2 hPa | 0 mm | - | 77 W/m² | - |
| 1777910110 | 26.67° C | 48% | 1018.3 hPa | 0 mm | - | 52 W/m² | - |
| 1777909510 | 26.11° C | 50% | 1018.5 hPa | 0 mm | - | 221 W/m² | - |
| 1777908905 | 26.11° C | 51% | 1018.5 hPa | 0 mm | - | 49 W/m² | - |
| 1777908305 | 26.11° C | 52% | 1018.4 hPa | 0 mm | - | 42 W/m² | - |
| 1777907703 | 25.56° C | 53% | 1018.4 hPa | 0 mm | - | 42 W/m² | - |
| 1777907101 | 25° C | 57% | 1018.6 hPa | 0 mm | - | 39 W/m² | - |
* Rain latest hour (hover to see other rain measurements)
** Current wind speed in m/s (hover to see current wind gust speed)